Time;durP1;ratioP1;P1;durP2;ratioP2;P2;SDS_P1;SDS_P2;PMS_P1;PMS_P2;Temp;Humidity;BMP_temperature;BMP_pressure;BME280_temperature;BME280_humidity;BME280_pressure;Samples;Min_cycle;Max_cycle;Signal;HPM_P1;HPM_P2
2022/09/21 00:02:13;;;;;;;30.05;28.15;;;;;;;15.92;57.50;102533.88;5011266;28;20104;-77
2022/09/21 00:04:39;;;;;;;30.48;28.48;;;;;;;15.90;57.28;102536.88;5021504;28;20367;-77
2022/09/21 00:07:04;;;;;;;30.95;29.15;;;;;;;15.89;57.39;102529.75;5011788;28;20034;-76
2022/09/21 00:09:30;;;;;;;28.83;27.02;;;;;;;15.88;57.48;102533.53;5013199;28;20034;-77
2022/09/21 00:11:55;;;;;;;31.48;29.50;;;;;;;15.89;57.52;102531.63;5011263;28;20161;-76
2022/09/21 00:14:21;;;;;;;28.63;26.63;;;;;;;15.86;57.62;102538.38;5018848;28;20038;-76
2022/09/21 00:16:46;;;;;;;30.13;28.52;;;;;;;15.86;57.51;102537.56;5015686;28;20104;-76
2022/09/21 00:19:12;;;;;;;29.33;27.65;;;;;;;15.85;57.57;102535.88;5012051;28;20034;-76
2022/09/21 00:21:38;;;;;;;29.52;27.85;;;;;;;15.84;57.60;102534.25;5012514;28;20402;-76
2022/09/21 00:24:05;;;;;;;30.85;28.95;;;;;;;15.82;57.35;102526.28;5029340;28;20090;-75
2022/09/21 00:26:31;;;;;;;28.98;27.40;;;;;;;15.82;57.55;102530.91;5014404;28;20040;-76
2022/09/21 00:28:58;;;;;;;30.42;28.40;;;;;;;15.81;57.59;102535.53;5029936;28;20464;-77
2022/09/21 00:31:25;;;;;;;28.95;27.35;;;;;;;15.79;57.41;102530.31;5029952;28;20433;-77
2022/09/21 00:33:51;;;;;;;30.45;28.58;;;;;;;15.79;57.68;102529.47;5030810;28;20363;-76
2022/09/21 00:36:20;;;;;;;28.67;27.17;;;;;;;15.77;57.48;102532.47;5012567;28;20117;-77
2022/09/21 00:38:53;;;;;;;28.52;26.90;;;;;;;15.77;57.22;102528.88;5012148;28;20064;-76
2022/09/21 00:41:19;;;;;;;28.13;26.55;;;;;;;15.76;57.57;102527.22;5015339;28;20026;-76
2022/09/21 00:44:07;;;;;;;29.67;27.80;;;;;;;15.73;57.64;102533.97;5024819;28;20097;-77
2022/09/21 00:46:36;;;;;;;28.40;26.48;;;;;;;15.73;57.44;102531.25;5017217;28;20074;-77
2022/09/21 00:49:02;;;;;;;29.83;28.08;;;;;;;15.72;57.30;102532.34;5030945;28;20034;-77
2022/09/21 00:51:28;;;;;;;28.45;26.85;;;;;;;15.70;57.47;102530.88;5031483;28;20030;-77
2022/09/21 00:54:01;;;;;;;29.00;27.30;;;;;;;15.70;57.52;102533.59;5036724;28;20125;-77
2022/09/21 00:56:28;;;;;;;30.40;28.70;;;;;;;15.68;57.51;102531.09;5011930;28;20105;-78
2022/09/21 00:58:54;;;;;;;29.10;27.55;;;;;;;15.67;57.62;102532.13;5017985;28;20538;-77
2022/09/21 01:01:20;;;;;;;27.98;26.48;;;;;;;15.66;57.55;102537.84;5010668;28;20118;-76
2022/09/21 01:03:49;;;;;;;29.40;27.50;;;;;;;15.64;57.38;102527.16;5032360;28;20032;-77
2022/09/21 01:06:18;;;;;;;29.60;28.00;;;;;;;15.65;57.49;102530.72;5030173;28;20030;-77
2022/09/21 01:08:46;;;;;;;28.58;26.55;;;;;;;15.64;57.44;102531.78;5011749;28;20030;-77
2022/09/21 01:11:33;;;;;;;29.25;27.48;;;;;;;15.62;57.40;102526.56;5018367;28;20022;-77
2022/09/21 01:14:17;;;;;;;28.25;26.65;;;;;;;15.61;57.61;102526.81;5018123;28;20064;-78
2022/09/21 01:16:48;;;;;;;30.20;27.98;;;;;;;15.58;57.43;102528.94;5029380;28;20037;-77
2022/09/21 01:19:35;;;;;;;29.67;27.88;;;;;;;15.55;57.59;102529.41;5029622;28;20523;-76
2022/09/21 01:22:29;;;;;;;28.20;26.63;;;;;;;15.56;57.50;102524.78;5014658;28;20117;-77
2022/09/21 01:25:04;;;;;;;28.20;26.55;;;;;;;15.54;57.67;102525.00;5020215;28;20025;-76
2022/09/21 01:27:39;;;;;;;28.27;26.67;;;;;;;15.53;57.39;102541.59;5021493;28;20052;-76
2022/09/21 01:30:09;;;;;;;30.15;28.42;;;;;;;15.52;57.37;102543.50;5026449;28;20474;-77
2022/09/21 01:32:40;;;;;;;29.33;27.38;;;;;;;15.50;57.58;102537.44;5021431;28;20041;-76
2022/09/21 01:35:12;;;;;;;28.23;26.05;;;;;;;15.50;57.49;102531.16;5021293;28;20109;-77
2022/09/21 01:37:43;;;;;;;27.77;26.38;;;;;;;15.48;57.43;102539.56;5030275;28;20038;-75
2022/09/21 01:40:22;;;;;;;27.80;26.20;;;;;;;15.48;57.50;102533.28;5030189;28;20159;-76
2022/09/21 01:42:51;;;;;;;27.15;25.08;;;;;;;15.46;57.67;102530.78;5038331;28;20045;-76
2022/09/21 01:45:23;;;;;;;27.90;26.20;;;;;;;15.45;57.33;102523.69;5023891;28;20038;-76
2022/09/21 01:47:50;;;;;;;27.25;25.83;;;;;;;15.44;57.33;102524.75;5022412;28;20040;-76
2022/09/21 01:50:19;;;;;;;28.85;26.75;;;;;;;15.45;57.58;102529.13;5034290;28;20029;-76
2022/09/21 01:52:52;;;;;;;28.00;26.40;;;;;;;15.44;57.63;102526.63;5037227;28;20041;-77
2022/09/21 01:55:27;;;;;;;27.63;26.05;;;;;;;15.41;57.46;102527.94;5023010;28;20425;-76
2022/09/21 01:58:01;;;;;;;26.80;25.30;;;;;;;15.40;57.64;102526.28;5027498;28;20057;-76
2022/09/21 02:00:28;;;;;;;28.05;26.45;;;;;;;15.39;57.31;102530.03;5033322;28;20029;-76
2022/09/21 02:03:12;;;;;;;28.03;26.53;;;;;;;15.38;57.26;102524.84;5029737;28;20038;-76
2022/09/21 02:05:39;;;;;;;26.88;25.27;;;;;;;15.36;57.61;102523.19;5018379;28;20022;-77
2022/09/21 02:08:06;;;;;;;26.88;25.35;;;;;;;15.35;57.49;102531.59;5031069;28;20079;-78
2022/09/21 02:10:35;;;;;;;27.48;25.88;;;;;;;15.35;57.64;102528.88;5017555;28;20026;-77
2022/09/21 02:13:04;;;;;;;28.30;26.23;;;;;;;15.34;57.45;102530.75;5033166;28;20516;-77
2022/09/21 02:15:54;;;;;;;27.23;25.73;;;;;;;15.33;57.34;102537.25;5034463;28;20040;-76
2022/09/21 02:18:42;;;;;;;29.20;27.50;;;;;;;15.31;57.58;102528.47;5033047;28;20503;-77
2022/09/21 02:21:23;;;;;;;27.50;25.92;;;;;;;15.30;57.34;102526.84;5032657;28;20167;-77
2022/09/21 02:24:30;;;;;;;26.75;25.35;;;;;;;15.29;57.41;102527.88;5025536;28;20377;-77
2022/09/21 02:27:02;;;;;;;26.42;24.92;;;;;;;15.27;57.44;102534.63;5024829;28;20030;-77
2022/09/21 02:29:52;;;;;;;28.38;26.77;;;;;;;15.25;57.28;102529.41;5014253;28;20033;-77
2022/09/21 02:32:26;;;;;;;27.63;25.92;;;;;;;15.25;57.38;102534.88;5030830;28;20128;-77
2022/09/21 02:35:07;;;;;;;27.15;25.55;;;;;;;15.24;57.35;102537.81;5023243;28;20444;-77
2022/09/21 02:37:54;;;;;;;26.83;25.10;;;;;;;15.22;57.50;102529.03;5017773;28;20029;-77
2022/09/21 02:40:39;;;;;;;28.45;26.33;;;;;;;15.20;57.31;102532.00;5033356;28;20034;-77
2022/09/21 02:43:26;;;;;;;27.13;25.63;;;;;;;15.19;57.27;102532.22;5034187;28;20534;-77
2022/09/21 02:46:05;;;;;;;26.70;25.20;;;;;;;15.18;57.22;102527.84;5032421;28;20029;-76
2022/09/21 02:48:44;;;;;;;26.05;24.55;;;;;;;15.16;57.34;102530.78;5023605;28;20096;-76
2022/09/21 02:51:13;;;;;;;26.55;25.13;;;;;;;15.14;57.19;102533.75;5013852;28;20036;-76
2022/09/21 02:53:40;;;;;;;27.08;25.17;;;;;;;15.14;57.25;102530.19;5014095;28;20540;-77
2022/09/21 02:56:07;;;;;;;26.80;25.40;;;;;;;15.13;57.36;102525.81;5042912;28;20131;-77
2022/09/21 02:58:36;;;;;;;26.40;24.67;;;;;;;15.12;57.62;102524.97;5019039;28;20030;-76
2022/09/21 03:01:07;;;;;;;26.88;25.15;;;;;;;15.10;57.40;102521.66;5013948;28;20040;-77
2022/09/21 03:03:33;;;;;;;28.95;26.98;;;;;;;15.09;57.51;102522.72;5043325;28;20030;-76
2022/09/21 03:06:00;;;;;;;25.63;24.23;;;;;;;15.09;57.34;102527.31;5031849;28;20041;-76
2022/09/21 03:08:26;;;;;;;27.05;25.33;;;;;;;15.07;57.17;102524.03;5032095;28;20104;-76
2022/09/21 03:10:52;;;;;;;26.92;25.42;;;;;;;15.07;57.40;102526.75;5031679;28;20113;-76
2022/09/21 03:13:18;;;;;;;26.83;25.33;;;;;;;15.05;57.06;102534.28;5014625;28;20044;-76
2022/09/21 03:15:44;;;;;;;27.40;25.55;;;;;;;15.04;57.50;102529.91;5033236;28;20037;-76
2022/09/21 03:18:11;;;;;;;26.23;24.83;;;;;;;15.03;57.20;102536.41;5033152;28;20056;-77
2022/09/21 03:20:37;;;;;;;26.15;24.75;;;;;;;15.01;57.14;102533.06;5031875;28;20063;-76
2022/09/21 03:23:04;;;;;;;26.38;24.67;;;;;;;15.00;57.21;102534.97;5031051;28;20037;-75
2022/09/21 03:25:30;;;;;;;28.10;26.40;;;;;;;14.99;57.26;102535.19;5022938;28;20042;-76
2022/09/21 03:27:56;;;;;;;27.92;26.40;;;;;;;14.98;57.25;102539.81;5021979;28;20041;-78
2022/09/21 03:30:24;;;;;;;27.35;25.75;;;;;;;14.97;57.17;102542.75;5033843;28;20025;-76
2022/09/21 03:32:53;;;;;;;26.85;24.92;;;;;;;14.94;57.03;102535.88;5020955;28;20085;-76
2022/09/21 03:35:18;;;;;;;;;;;;;;;14.93;57.20;102537.78;5030452;28;20037;-75
2022/09/21 03:37:47;;;;;;;25.05;23.63;;;;;;;14.92;57.50;102540.75;5031009;28;20328;-76
2022/09/21 03:40:14;;;;;;;26.50;25.10;;;;;;;14.90;57.37;102537.41;5042214;28;20032;-78
2022/09/21 03:42:40;;;;;;;25.83;24.25;;;;;;;14.88;57.10;102539.53;5035770;28;20076;-77
2022/09/21 03:45:06;;;;;;;26.27;24.70;;;;;;;14.87;57.13;102537.88;5015344;28;20121;-78
2022/09/21 03:47:32;;;;;;;27.50;25.70;;;;;;;14.86;57.39;102538.91;5012504;28;20026;-76
2022/09/21 03:49:57;;;;;;;27.48;25.13;;;;;;;14.85;57.38;102539.97;5019869;28;20080;-76
2022/09/21 03:52:23;;;;;;;24.90;23.50;;;;;;;14.83;57.05;102537.47;5031076;28;20112;-77
2022/09/21 03:54:48;;;;;;;24.92;23.48;;;;;;;14.82;57.00;102541.25;5038771;28;20043;-76
2022/09/21 03:57:14;;;;;;;26.05;24.33;;;;;;;14.80;56.87;102534.38;5021569;28;20038;-77
2022/09/21 03:59:39;;;;;;;25.00;23.20;;;;;;;14.79;57.13;102539.00;5027613;28;20094;-76
2022/09/21 04:02:04;;;;;;;25.35;23.88;;;;;;;14.79;57.22;102540.88;5033607;28;20061;-77
2022/09/21 04:04:30;;;;;;;26.27;24.48;;;;;;;14.78;57.28;102536.50;5018918;28;20433;-78
2022/09/21 04:06:55;;;;;;;25.80;24.33;;;;;;;14.76;57.02;102534.00;5012280;28;20064;-78
2022/09/21 04:09:20;;;;;;;30.05;24.88;;;;;;;14.75;57.01;102535.06;5014692;28;20049;-79
2022/09/21 04:11:47;;;;;;;27.30;25.55;;;;;;;14.74;57.15;102532.56;5013163;28;20117;-79
2022/09/21 04:14:12;;;;;;;25.50;24.13;;;;;;;14.71;57.28;102529.22;5002129;28;20128;-79
2022/09/21 04:16:38;;;;;;;26.83;25.33;;;;;;;14.70;56.97;102533.03;5031824;28;20135;-79
2022/09/21 04:19:04;;;;;;;26.27;24.77;;;;;;;14.69;56.86;102531.38;5031915;28;20029;-78
2022/09/21 04:21:29;;;;;;;27.73;25.98;;;;;;;14.68;57.00;102529.69;5013696;28;20033;-77
2022/09/21 04:23:55;;;;;;;25.58;24.23;;;;;;;14.68;57.09;102537.03;5030031;28;20029;-78
2022/09/21 04:26:32;;;;;;;26.58;25.10;;;;;;;14.66;56.95;102530.97;4996674;28;20037;-78
2022/09/21 04:28:58;;;;;;;25.48;23.98;;;;;;;14.65;57.05;102541.03;5014819;28;20503;-78
2022/09/21 04:31:25;;;;;;;26.95;25.33;;;;;;;14.62;56.87;102536.03;5018693;28;20054;-79
2022/09/21 04:33:52;;;;;;;24.42;23.13;;;;;;;14.62;56.89;102533.31;5013968;28;20038;-78
2022/09/21 04:36:19;;;;;;;25.75;24.25;;;;;;;14.59;57.06;102533.78;5029172;28;20051;-79
2022/09/21 04:38:45;;;;;;;24.77;23.48;;;;;;;14.58;56.78;102540.25;5016781;28;20053;-78
2022/09/21 04:41:11;;;;;;;25.30;24.00;;;;;;;14.58;57.08;102547.59;5012410;28;20025;-78
2022/09/21 04:43:36;;;;;;;25.90;24.38;;;;;;;14.56;56.79;102545.09;5012046;28;20680;-76
2022/09/21 04:46:09;;;;;;;25.35;23.70;;;;;;;14.55;56.81;102546.16;5011050;28;20038;-77
2022/09/21 04:48:35;;;;;;;28.08;26.30;;;;;;;14.54;56.91;102552.66;5016760;28;20036;-77
2022/09/21 04:51:02;;;;;;;26.30;24.88;;;;;;;14.53;57.03;102556.44;5031799;28;20496;-77
2022/09/21 04:53:28;;;;;;;27.67;26.08;;;;;;;14.50;56.90;102549.50;5017628;28;20029;-78
2022/09/21 04:55:54;;;;;;;25.98;24.00;;;;;;;14.50;56.72;102556.84;5011811;28;20467;-78
2022/09/21 04:58:20;;;;;;;25.50;23.80;;;;;;;14.48;56.92;102564.41;5026952;28;20049;-79
2022/09/21 05:00:50;;;;;;;26.38;24.80;;;;;;;14.47;56.67;102554.59;5026334;28;20030;-78
2022/09/21 05:03:15;;;;;;;24.83;23.38;;;;;;;14.46;56.95;102552.91;5013048;28;20029;-77
2022/09/21 05:05:46;;;;;;;26.15;24.35;;;;;;;14.45;56.88;102556.69;5011633;28;20084;-76
2022/09/21 05:08:11;;;;;;;26.58;24.98;;;;;;;14.42;56.65;102555.25;5019867;28;20037;-76
2022/09/21 05:10:37;;;;;;;27.98;26.17;;;;;;;14.42;56.86;102565.31;4994304;28;20462;-77
2022/09/21 05:13:02;;;;;;;24.98;23.35;;;;;;;14.40;56.96;102564.69;5010846;28;20436;-77
2022/09/21 05:15:27;;;;;;;26.30;24.70;;;;;;;14.39;56.94;102561.16;5005814;28;20037;-78
2022/09/21 05:17:53;;;;;;;27.23;25.73;;;;;;;14.38;56.75;102562.19;5030553;28;20465;-77
2022/09/21 05:20:18;;;;;;;27.42;25.55;;;;;;;14.37;56.68;102554.28;5029945;28;20060;-76
2022/09/21 05:22:43;;;;;;;26.10;24.60;;;;;;;14.36;56.90;102566.19;5058655;28;20038;-77
2022/09/21 05:25:09;;;;;;;24.88;23.27;;;;;;;14.34;56.71;102562.84;4996936;28;20442;-77
2022/09/21 05:27:34;;;;;;;26.80;25.15;;;;;;;14.33;56.60;102564.75;5028789;28;20033;-78
2022/09/21 05:30:00;;;;;;;24.88;23.38;;;;;;;14.32;56.75;102564.97;5013598;28;20482;-78
2022/09/21 05:32:44;;;;;;;26.48;24.77;;;;;;;14.30;56.86;102576.06;5030565;28;20054;-76
2022/09/21 05:35:30;;;;;;;25.30;23.77;;;;;;;14.28;56.60;102572.72;5011653;28;20042;-76
2022/09/21 05:38:03;;;;;;;26.73;24.52;;;;;;;14.24;56.82;102572.34;5011915;28;20038;-78
2022/09/21 05:40:29;;;;;;;27.17;25.60;;;;;;;14.23;56.67;102573.41;5022485;28;20029;-76
2022/09/21 05:42:55;;;;;;;23.83;22.48;;;;;;;14.23;56.73;102578.84;5011483;28;20045;-77
2022/09/21 05:45:21;;;;;;;25.25;23.70;;;;;;;14.22;56.83;102581.78;5012546;28;20044;-76
2022/09/21 05:48:05;;;;;;;25.20;23.33;;;;;;;14.21;56.70;102577.38;5029448;28;20466;-76
2022/09/21 05:50:44;;;;;;;25.17;23.48;;;;;;;14.19;56.94;102577.63;5029362;28;20396;-78
2022/09/21 05:53:33;;;;;;;27.20;25.33;;;;;;;14.17;56.66;102577.00;5022832;28;20038;-76
2022/09/21 05:56:11;;;;;;;25.70;23.90;;;;;;;14.16;56.49;102574.50;5020257;28;20042;-75
2022/09/21 05:58:56;;;;;;;26.03;23.90;;;;;;;14.14;56.71;102579.34;5027855;28;20030;-77
2022/09/21 06:01:30;;;;;;;25.48;23.98;;;;;;;14.12;56.65;102585.00;5030691;28;20037;-76
2022/09/21 06:03:57;;;;;;;24.70;23.05;;;;;;;14.11;56.70;102586.06;5026754;28;20034;-76
2022/09/21 06:06:23;;;;;;;25.52;23.70;;;;;;;14.08;56.60;102583.75;5039223;28;20029;-76
2022/09/21 06:08:48;;;;;;;24.63;22.85;;;;;;;14.07;56.91;102582.94;5032219;28;20483;-77
2022/09/21 06:11:13;;;;;;;24.25;22.85;;;;;;;14.07;56.92;102584.84;5003708;28;20037;-78
2022/09/21 06:13:40;;;;;;;24.35;22.90;;;;;;;14.05;56.70;102593.19;5029950;28;20065;-74
2022/09/21 06:16:06;;;;;;;24.80;23.33;;;;;;;14.04;56.73;102593.44;5025238;28;20041;-76
2022/09/21 06:18:36;;;;;;;25.10;23.70;;;;;;;14.03;56.71;102598.00;5023686;28;20034;-77
2022/09/21 06:21:01;;;;;;;25.38;23.67;;;;;;;14.02;56.73;102595.53;5030751;28;20061;-76
2022/09/21 06:23:27;;;;;;;24.60;22.88;;;;;;;14.01;56.84;102594.72;5013069;28;20076;-79
2022/09/21 06:25:53;;;;;;;26.00;24.20;;;;;;;14.00;56.83;102594.91;5034456;28;20061;-77
2022/09/21 06:28:18;;;;;;;31.17;28.30;;;;;;;13.98;56.71;102597.84;5013066;28;20034;-77
2022/09/21 06:30:49;;;;;;;27.90;25.58;;;;;;;13.98;56.75;102599.72;5026694;28;20045;-76
2022/09/21 06:33:19;;;;;;;27.95;25.27;;;;;;;13.96;56.69;102594.53;5029664;28;20041;-77
2022/09/21 06:35:51;;;;;;;27.55;25.75;;;;;;;13.95;56.76;102601.00;5022018;28;20049;-77
2022/09/21 06:38:16;;;;;;;26.52;24.50;;;;;;;13.94;57.04;102601.25;5031233;28;20041;-76
2022/09/21 06:40:41;;;;;;;26.83;24.90;;;;;;;13.94;56.96;102601.25;5009068;28;20034;-75
2022/09/21 06:43:07;;;;;;;26.88;24.98;;;;;;;13.92;56.80;102598.72;5012347;28;20049;-76
2022/09/21 06:45:32;;;;;;;28.55;26.48;;;;;;;13.92;56.78;102593.31;5035650;28;20458;-76
2022/09/21 06:47:58;;;;;;;27.50;25.45;;;;;;;13.90;57.03;102597.28;5013951;28;20436;-76
2022/09/21 06:50:23;;;;;;;28.55;26.30;;;;;;;13.89;56.85;102607.34;5029822;28;20525;-77
2022/09/21 06:52:49;;;;;;;26.70;25.13;;;;;;;13.89;56.89;102601.91;5031656;28;20029;-77
2022/09/21 06:55:14;;;;;;;26.90;25.08;;;;;;;13.87;57.01;102605.88;5030852;28;20459;-83
2022/09/21 06:57:40;;;;;;;27.02;25.23;;;;;;;13.86;57.21;102605.06;5029452;28;20130;-77
2022/09/21 07:00:08;;;;;;;25.77;23.98;;;;;;;13.84;57.29;102597.13;5029125;28;20358;-76
2022/09/21 07:02:34;;;;;;;27.83;25.88;;;;;;;13.84;57.33;102607.97;5026538;28;20428;-78
2022/09/21 07:05:00;;;;;;;25.55;23.80;;;;;;;13.83;57.25;102605.47;5047430;28;20163;-77
2022/09/21 07:07:29;;;;;;;26.95;25.15;;;;;;;13.82;57.48;102601.09;5029086;28;20117;-77
2022/09/21 07:09:54;;;;;;;26.48;24.42;;;;;;;13.80;57.34;102601.31;5029048;28;20041;-77
2022/09/21 07:12:20;;;;;;;28.33;26.30;;;;;;;13.80;57.51;102606.75;5028956;28;20083;-77
2022/09/21 07:14:45;;;;;;;26.88;25.17;;;;;;;13.80;57.73;102612.16;5027928;28;20497;-77
2022/09/21 07:17:13;;;;;;;26.48;24.55;;;;;;;13.79;57.83;102601.53;4994195;28;20161;-76
2022/09/21 07:19:39;;;;;;;27.55;25.70;;;;;;;13.77;57.64;102609.91;5024345;28;20684;-78
2022/09/21 07:22:04;;;;;;;26.15;24.27;;;;;;;13.76;57.81;102608.25;5029838;28;20058;-76
2022/09/21 07:24:29;;;;;;;25.73;24.05;;;;;;;13.76;57.94;102608.25;5046489;28;20501;-76
2022/09/21 07:26:55;;;;;;;24.58;22.90;;;;;;;13.76;58.07;102607.44;5030140;28;20458;-78
2022/09/21 07:29:20;;;;;;;25.23;23.33;;;;;;;13.74;58.26;102607.63;5028679;28;20531;-79
2022/09/21 07:31:46;;;;;;;27.73;25.83;;;;;;;13.75;58.11;102609.28;5030609;28;20061;-78
2022/09/21 07:34:12;;;;;;;24.27;22.15;;;;;;;13.74;58.33;102598.66;5028617;28;20041;-76
2022/09/21 07:36:37;;;;;;;27.60;25.35;;;;;;;13.73;58.22;102603.22;5004573;28;20087;-76
2022/09/21 07:39:03;;;;;;;24.77;23.13;;;;;;;13.73;58.14;102596.97;4995412;28;20041;-79
2022/09/21 07:41:28;;;;;;;25.38;23.67;;;;;;;13.72;58.17;102601.56;5028048;28;20033;-78
2022/09/21 07:43:54;;;;;;;25.88;23.83;;;;;;;13.73;58.33;102597.78;5029903;28;20048;-79
2022/09/21 07:46:19;;;;;;;25.55;23.48;;;;;;;13.72;58.21;102600.75;5012247;28;20041;-78
2022/09/21 07:48:45;;;;;;;25.80;24.27;;;;;;;13.71;58.40;102601.78;5028587;28;20521;-79
2022/09/21 07:51:13;;;;;;;24.80;23.20;;;;;;;13.72;58.29;102603.47;5029534;28;20489;-87
2022/09/21 07:53:41;;;;;;;27.40;25.25;;;;;;;13.70;58.49;102597.41;5030569;28;20044;-82
2022/09/21 07:56:15;;;;;;;24.15;22.65;;;;;;;13.72;58.38;102596.16;5029930;28;20067;-82
2022/09/21 07:59:27;;;;;;;25.90;23.95;;;;;;;13.71;58.37;102599.94;5032793;28;20038;-82
2022/09/21 08:01:28;;;;;;;25.67;24.17;;;;;;;13.70;58.38;102598.25;5026626;28;20030;-80
2022/09/21 08:03:56;;;;;;;23.98;22.52;;;;;;;13.70;58.44;102598.25;5029914;28;20143;-83
2022/09/21 08:06:22;;;;;;;24.77;23.25;;;;;;;13.70;58.26;102603.66;5028013;28;20034;-79
2022/09/21 08:08:49;;;;;;;26.58;24.83;;;;;;;13.71;58.23;102599.94;5014851;28;20052;-80
2022/09/21 08:11:17;;;;;;;25.80;24.05;;;;;;;13.73;58.49;102599.69;5029156;28;20041;-80
2022/09/21 08:13:43;;;;;;;25.55;23.70;;;;;;;13.71;58.29;102599.94;5029604;28;20489;-83
2022/09/21 08:16:09;;;;;;;25.33;23.63;;;;;;;13.72;58.24;102596.16;5028455;28;20037;-80
2022/09/21 08:18:40;;;;;;;24.13;22.63;;;;;;;13.73;58.53;102597.78;5012329;28;20481;-80
2022/09/21 08:21:07;;;;;;;23.90;22.25;;;;;;;13.73;58.44;102595.09;5027087;28;20470;-82
2022/09/21 08:23:32;;;;;;;24.42;22.83;;;;;;;13.74;58.66;102598.66;5026901;28;20033;-79
2022/09/21 08:26:00;;;;;;;25.90;24.02;;;;;;;13.75;58.59;102601.13;5029540;28;20044;-79
2022/09/21 08:28:27;;;;;;;24.20;22.48;;;;;;;13.76;58.43;102599.28;5030660;28;20140;-79
2022/09/21 08:30:53;;;;;;;24.83;23.33;;;;;;;13.75;58.57;102605.75;5029500;28;20048;-79
2022/09/21 08:33:18;;;;;;;24.08;22.48;;;;;;;13.77;58.46;102603.63;5029671;28;20029;-82
2022/09/21 08:35:51;;;;;;;25.02;23.15;;;;;;;13.77;58.96;102599.03;5007594;28;20043;-79
2022/09/21 08:38:16;;;;;;;24.35;22.42;;;;;;;13.77;58.56;102606.34;5059982;28;20037;-82
2022/09/21 08:40:42;;;;;;;24.50;22.38;;;;;;;13.77;58.68;102609.91;5011949;28;20060;-80
2022/09/21 08:43:17;;;;;;;23.20;21.88;;;;;;;13.78;58.65;102617.03;5007803;28;20029;-81
2022/09/21 08:45:44;;;;;;;24.65;23.08;;;;;;;13.78;58.50;102611.59;5027560;28;20026;-82
2022/09/21 08:48:24;;;;;;;24.50;23.02;;;;;;;13.80;58.65;102611.34;5014924;28;20040;-80
2022/09/21 08:50:53;;;;;;;25.13;23.38;;;;;;;13.80;58.74;102612.16;5027146;28;20037;-80
2022/09/21 08:53:32;;;;;;;24.13;22.25;;;;;;;13.81;58.72;102608.44;5027824;28;20052;-81
2022/09/21 08:55:58;;;;;;;22.83;21.20;;;;;;;13.83;58.87;102619.06;5026168;28;20044;-77
2022/09/21 08:58:27;;;;;;;25.20;23.25;;;;;;;13.84;58.83;102607.16;5027987;28;20045;-78
2022/09/21 09:01:11;;;;;;;24.80;22.95;;;;;;;13.84;58.96;102610.69;5024614;28;20033;-79
2022/09/21 09:03:53;;;;;;;24.60;22.60;;;;;;;13.85;58.83;102614.25;5023259;28;20030;-80
2022/09/21 09:06:27;;;;;;;24.95;23.38;;;;;;;13.86;59.07;102610.50;5025493;28;20029;-80
2022/09/21 09:09:05;;;;;;;25.00;23.15;;;;;;;13.87;58.96;102617.56;5025658;28;20461;-78
2022/09/21 09:11:52;;;;;;;25.50;23.80;;;;;;;13.88;58.98;102616.50;5022727;28;20535;-78
2022/09/21 09:14:30;;;;;;;23.67;22.33;;;;;;;13.88;59.17;102616.50;5025325;28;20033;-81
2022/09/21 09:17:08;;;;;;;25.15;23.65;;;;;;;13.88;58.98;102619.22;5023164;28;20029;-78
2022/09/21 09:19:42;;;;;;;24.67;23.02;;;;;;;13.90;58.90;102622.56;5030398;28;20037;-78
2022/09/21 09:22:14;;;;;;;24.40;22.80;;;;;;;13.91;59.22;102618.81;5027653;28;20030;-80
2022/09/21 09:24:48;;;;;;;24.48;22.90;;;;;;;13.93;58.99;102624.84;5025894;28;20099;-81
2022/09/21 09:27:24;;;;;;;25.88;24.20;;;;;;;13.95;59.22;102617.31;5023676;28;20091;-81
2022/09/21 09:30:01;;;;;;;25.77;23.95;;;;;;;13.96;58.95;102632.56;5026808;28;20027;-80
2022/09/21 09:32:52;;;;;;;25.77;23.85;;;;;;;13.98;59.03;102625.00;5025901;28;20068;-80
2022/09/21 09:35:25;;;;;;;23.02;21.70;;;;;;;13.99;59.12;102621.25;5031811;28;20084;-83
2022/09/21 09:37:54;;;;;;;24.38;22.65;;;;;;;14.02;58.64;102622.69;5026028;28;20056;-79
2022/09/21 09:40:38;;;;;;;24.40;22.80;;;;;;;14.05;58.69;102630.41;5008593;28;20042;-78
2022/09/21 09:43:31;;;;;;;23.08;21.65;;;;;;;14.08;58.94;102621.81;5026303;28;20362;-82
2022/09/21 09:46:20;;;;;;;23.40;22.00;;;;;;;14.12;58.69;102623.03;5015828;28;20048;-77
2022/09/21 09:49:08;;;;;;;23.75;22.45;;;;;;;14.17;58.85;102625.94;5024990;28;20500;-75
2022/09/21 09:51:35;;;;;;;22.90;21.52;;;;;;;14.20;58.58;102625.50;5026421;28;20041;-76
2022/09/21 09:54:02;;;;;;;23.15;21.95;;;;;;;14.24;58.57;102625.91;5010618;28;20470;-76
2022/09/21 09:56:30;;;;;;;23.67;22.27;;;;;;;14.28;58.34;102622.50;5024761;28;20497;-75
2022/09/21 09:59:06;;;;;;;26.85;25.15;;;;;;;14.32;58.66;102622.06;5011944;28;20030;-75
2022/09/21 10:01:46;;;;;;;24.13;22.80;;;;;;;14.36;58.33;102628.72;5024449;28;20036;-77
2022/09/21 10:04:15;;;;;;;24.25;22.75;;;;;;;14.40;58.38;102627.22;5028585;28;20409;-75
2022/09/21 10:06:41;;;;;;;24.00;22.63;;;;;;;14.43;58.49;102624.06;5034987;28;20480;-76
2022/09/21 10:09:36;;;;;;;27.45;25.75;;;;;;;14.47;58.44;102625.28;5029496;28;20501;-76
2022/09/21 10:12:24;;;;;;;26.27;24.42;;;;;;;14.51;58.50;102621.03;5004153;28;20509;-76
2022/09/21 10:14:56;;;;;;;27.65;25.60;;;;;;;14.54;58.39;102617.94;5030399;28;20029;-78
2022/09/21 10:17:24;;;;;;;25.40;23.75;;;;;;;14.57;58.46;102614.75;5031003;28;20033;-76
2022/09/21 10:19:59;;;;;;;26.08;24.58;;;;;;;14.60;58.20;102608.88;5029278;28;20040;-75
2022/09/21 10:22:27;;;;;;;26.50;24.63;;;;;;;14.65;58.23;102606.31;5027727;28;20032;-77
2022/09/21 10:24:53;;;;;;;28.67;26.52;;;;;;;14.68;58.43;102608.56;5032660;28;20029;-80
2022/09/21 10:27:28;;;;;;;25.30;23.85;;;;;;;14.71;58.47;102610.00;5029004;28;20493;-77
2022/09/21 10:29:54;;;;;;;27.30;25.48;;;;;;;14.75;58.37;102608.50;5029450;28;20480;-77
2022/09/21 10:32:25;;;;;;;26.30;24.88;;;;;;;14.79;58.12;102606.16;5029957;28;20045;-77
2022/09/21 10:35:03;;;;;;;27.65;25.95;;;;;;;14.82;55.57;102594.84;5029422;28;20281;-75
2022/09/21 10:37:54;;;;;;;26.10;24.65;;;;;;;14.83;56.36;102596.50;5023434;28;20048;-76
2022/09/21 10:40:22;;;;;;;26.65;24.75;;;;;;;14.87;56.25;102595.00;5026700;28;20049;-75
2022/09/21 10:42:49;;;;;;;28.48;26.67;;;;;;;14.89;56.53;102588.28;5025230;28;20029;-78
2022/09/21 10:45:20;;;;;;;25.67;24.05;;;;;;;14.92;55.71;102593.25;5031404;28;20044;-76
2022/09/21 10:47:51;;;;;;;26.77;25.23;;;;;;;14.96;55.79;102593.63;5030277;28;20529;-79
2022/09/21 10:50:34;;;;;;;26.05;24.55;;;;;;;14.98;55.24;102594.25;5025435;28;20478;-78
2022/09/21 10:53:01;;;;;;;26.77;25.38;;;;;;;15.03;55.61;102591.66;5029651;28;20119;-78
2022/09/21 10:55:29;;;;;;;26.58;24.90;;;;;;;15.06;55.78;102588.47;5029632;28;20037;-76
2022/09/21 10:57:55;;;;;;;26.80;25.02;;;;;;;15.10;54.96;102602.47;5031154;28;20113;-76
2022/09/21 11:00:24;;;;;;;25.20;24.00;;;;;;;15.14;54.06;102593.63;5000947;28;20046;-77
2022/09/21 11:02:50;;;;;;;26.20;24.65;;;;;;;15.15;53.74;102595.28;5024897;28;20051;-75
2022/09/21 11:05:43;;;;;;;26.13;24.63;;;;;;;15.20;54.08;102597.34;5031293;28;20043;-79
2022/09/21 11:08:18;;;;;;;25.90;24.45;;;;;;;15.23;54.75;102593.31;5028299;28;20042;-76
2022/09/21 11:10:49;;;;;;;26.65;25.13;;;;;;;15.27;54.76;102586.34;5027737;28;20497;-77
2022/09/21 11:13:31;;;;;;;26.38;24.65;;;;;;;15.32;55.03;102597.38;5030259;28;20040;-76
2022/09/21 11:16:11;;;;;;;27.83;26.17;;;;;;;15.34;54.55;102587.09;5027917;28;20098;-77
2022/09/21 11:18:58;;;;;;;27.05;25.27;;;;;;;15.37;55.29;102586.63;5030111;28;20033;-77
2022/09/21 11:21:39;;;;;;;26.63;25.23;;;;;;;15.41;54.71;102582.38;5023563;28;20090;-76
2022/09/21 11:24:34;;;;;;;25.45;24.13;;;;;;;15.47;54.94;102594.25;5029413;28;20029;-76
2022/09/21 11:27:09;;;;;;;27.02;25.30;;;;;;;15.49;54.19;102589.41;5030271;28;20029;-76